Time,TemperatureF,DewpointF,PressureIn,WindDirection,WindDirectionDegrees,WindSpeedMPH,WindSpeedGustMPH,Humidity,HourlyPrecipIn,Conditions,Clouds,dailyrainin,SoftwareType,DateUTC
2013-01-02 00:02:00,53.0,8.0,-100.00,NE,41,10.0,19.0,16,-99.99,,,-99.99,,2013-01-02 08:02:00,
2013-01-02 00:11:00,53.0,8.0,-100.00,NE,41,7.0,16.0,16,-99.99,,,-99.99,,2013-01-02 08:11:00,
2013-01-02 00:22:00,53.0,8.0,-100.00,NE,47,7.0,18.0,16,-99.99,,,-99.99,,2013-01-02 08:22:00,
2013-01-02 00:32:00,53.0,7.0,-100.00,NE,34,5.0,15.0,15,-99.99,,,-99.99,,2013-01-02 08:32:00,
2013-01-02 00:52:00,54.0,7.0,-100.00,NE,36,7.0,17.0,15,-99.99,,,-99.99,,2013-01-02 08:52:00,
2013-01-02 01:02:00,54.0,7.0,-100.00,NE,41,6.0,15.0,15,-99.99,,,-99.99,,2013-01-02 09:02:00,
2013-01-02 01:12:00,53.0,7.0,-100.00,NE,40,7.0,24.0,15,-99.99,,,-99.99,,2013-01-02 09:12:00,
2013-01-02 01:22:00,53.0,7.0,-100.00,NE,42,8.0,20.0,15,-99.99,,,-99.99,,2013-01-02 09:22:00,
2013-01-02 01:32:00,53.0,7.0,-100.00,NE,48,14.0,31.0,15,-99.99,,,-99.99,,2013-01-02 09:32:00,
2013-01-02 01:52:00,53.0,7.0,-100.00,NE,52,14.0,26.0,15,-99.99,,,-99.99,,2013-01-02 09:52:00,
2013-01-02 02:02:00,53.0,7.0,-100.00,NE,43,10.0,29.0,15,-99.99,,,-99.99,,2013-01-02 10:02:00,
2013-01-02 02:12:00,53.0,7.0,-100.00,NE,44,10.0,33.0,15,-99.99,,,-99.99,,2013-01-02 10:12:00,
2013-01-02 02:32:00,53.0,5.0,-100.00,NE,42,11.0,25.0,14,-99.99,,,-99.99,,2013-01-02 10:32:00,
2013-01-02 02:52:00,53.0,5.0,-100.00,NE,45,10.0,34.0,14,-99.99,,,-99.99,,2013-01-02 10:52:00,
2013-01-02 03:02:00,53.0,7.0,-100.00,NE,52,7.0,19.0,15,-99.99,,,-99.99,,2013-01-02 11:02:00,
2013-01-02 03:11:00,53.0,5.0,-100.00,NE,45,7.0,15.0,14,-99.99,,,-99.99,,2013-01-02 11:11:00,
2013-01-02 03:22:00,53.0,5.0,-100.00,NNE,20,5.0,14.0,14,-99.99,,,-99.99,,2013-01-02 11:22:00,
2013-01-02 03:32:00,53.0,5.0,-100.00,NE,40,11.0,29.0,14,-99.99,,,-99.99,,2013-01-02 11:32:00,
2013-01-02 03:52:00,53.0,5.0,-100.00,NE,42,13.0,27.0,14,-99.99,,,-99.99,,2013-01-02 11:52:00,
2013-01-02 04:02:00,53.0,5.0,-100.00,NE,36,10.0,21.0,14,-99.99,,,-99.99,,2013-01-02 12:02:00,
2013-01-02 04:12:00,54.0,6.0,-100.00,NE,37,8.0,18.0,14,-99.99,,,-99.99,,2013-01-02 12:12:00,
2013-01-02 04:22:00,54.0,6.0,-100.00,NE,44,6.0,15.0,14,-99.99,,,-99.99,,2013-01-02 12:22:00,
2013-01-02 04:32:00,54.0,6.0,-100.00,NE,37,9.0,19.0,14,-99.99,,,-99.99,,2013-01-02 12:32:00,
2013-01-02 05:12:00,53.0,5.0,-100.00,NE,47,10.0,20.0,14,-99.99,,,-99.99,,2013-01-02 13:12:00,
2013-01-02 05:22:00,54.0,6.0,-100.00,NE,41,11.0,24.0,14,-99.99,,,-99.99,,2013-01-02 13:22:00,
2013-01-02 05:32:00,54.0,6.0,-100.00,NE,48,12.0,29.0,14,-99.99,,,-99.99,,2013-01-02 13:32:00,
2013-01-02 05:42:00,53.0,5.0,-100.00,NE,50,13.0,32.0,14,-99.99,,,-99.99,,2013-01-02 13:42:00,
2013-01-02 05:52:00,54.0,6.0,-100.00,NE,51,12.0,25.0,14,-99.99,,,-99.99,,2013-01-02 13:52:00,
2013-01-02 06:02:00,54.0,6.0,-100.00,NE,43,12.0,25.0,14,-99.99,,,-99.99,,2013-01-02 14:02:00,
2013-01-02 06:12:00,54.0,6.0,-100.00,NE,50,16.0,32.0,14,-99.99,,,-99.99,,2013-01-02 14:12:00,
2013-01-02 06:22:00,54.0,6.0,-100.00,NE,48,14.0,26.0,14,-99.99,,,-99.99,,2013-01-02 14:22:00,
2013-01-02 06:32:00,54.0,6.0,-100.00,NE,50,17.0,35.0,14,-99.99,,,-99.99,,2013-01-02 14:32:00,
2013-01-02 06:42:00,53.0,7.0,-100.00,NE,50,17.0,34.0,15,-99.99,,,-99.99,,2013-01-02 14:42:00,
2013-01-02 06:53:00,53.0,7.0,-100.00,NE,48,21.0,37.0,15,-99.99,,,-99.99,,2013-01-02 14:53:00,
2013-01-02 07:02:00,53.0,7.0,-100.00,NE,49,17.0,41.0,15,-99.99,,,-99.99,,2013-01-02 15:02:00,
2013-01-02 07:12:00,53.0,7.0,-100.00,NE,46,16.0,35.0,15,-99.99,,,-99.99,,2013-01-02 15:12:00,
2013-01-02 07:22:00,53.0,7.0,-100.00,NE,56,16.0,28.0,15,-99.99,,,-99.99,,2013-01-02 15:22:00,
2013-01-02 07:33:00,54.0,6.0,-100.00,NE,53,12.0,26.0,14,-99.99,,,-99.99,,2013-01-02 15:33:00,
2013-01-02 07:42:00,54.0,6.0,-100.00,NE,53,12.0,26.0,14,-99.99,,,-99.99,,2013-01-02 15:42:00,
2013-01-02 07:52:00,53.0,5.0,-100.00,ENE,57,13.0,34.0,14,-99.99,,,-99.99,,2013-01-02 15:52:00,
2013-01-02 08:02:00,53.0,7.0,-100.00,NE,47,16.0,36.0,15,-99.99,,,-99.99,,2013-01-02 16:02:00,
2013-01-02 08:12:00,53.0,7.0,-100.00,NE,52,18.0,34.0,15,-99.99,,,-99.99,,2013-01-02 16:12:00,
2013-01-02 08:22:00,54.0,6.0,-100.00,NE,50,20.0,35.0,14,-99.99,,,-99.99,,2013-01-02 16:22:00,
2013-01-02 08:33:00,55.0,5.0,-100.00,NE,47,18.0,33.0,13,-99.99,,,-99.99,,2013-01-02 16:33:00,
2013-01-02 08:42:00,55.0,5.0,-100.00,NE,47,18.0,33.0,13,-99.99,,,-99.99,,2013-01-02 16:42:00,
2013-01-02 08:53:00,55.0,5.0,-100.00,NE,48,16.0,33.0,13,-99.99,,,-99.99,,2013-01-02 16:53:00,
2013-01-02 09:02:00,56.0,6.0,-100.00,NE,49,15.0,31.0,13,-99.99,,,-99.99,,2013-01-02 17:02:00,
2013-01-02 09:12:00,57.0,5.0,-100.00,NE,50,16.0,27.0,12,-99.99,,,-99.99,,2013-01-02 17:12:00,
2013-01-02 09:22:00,57.0,5.0,-100.00,NE,50,16.0,32.0,12,-99.99,,,-99.99,,2013-01-02 17:22:00,
2013-01-02 09:33:00,58.0,6.0,-100.00,NE,55,15.0,28.0,12,-99.99,,,-99.99,,2013-01-02 17:33:00,
2013-01-02 09:42:00,58.0,6.0,-100.00,NE,53,15.0,29.0,12,-99.99,,,-99.99,,2013-01-02 17:42:00,
2013-01-02 09:53:00,59.0,5.0,-100.00,NE,46,8.0,23.0,11,-99.99,,,-99.99,,2013-01-02 17:53:00,
2013-01-02 10:02:00,59.0,5.0,-100.00,NE,39,5.0,12.0,11,-99.99,,,-99.99,,2013-01-02 18:02:00,
2013-01-02 10:12:00,60.0,5.0,-100.00,WNW,298,4.0,11.0,11,-99.99,,,-99.99,,2013-01-02 18:12:00,
2013-01-02 10:22:00,60.0,5.0,-100.00,North,11,7.0,18.0,11,-99.99,,,-99.99,,2013-01-02 18:22:00,
2013-01-02 10:33:00,61.0,6.0,-100.00,NNE,32,6.0,14.0,11,-99.99,,,-99.99,,2013-01-02 18:33:00,
2013-01-02 10:42:00,62.0,7.0,-100.00,NNE,19,4.0,10.0,11,-99.99,,,-99.99,,2013-01-02 18:42:00,
2013-01-02 10:52:00,61.0,10.0,-100.00,WSW,241,4.0,9.0,13,-99.99,,,-99.99,,2013-01-02 18:52:00,
2013-01-02 11:02:00,60.0,15.0,-100.00,SW,220,6.0,11.0,17,-99.99,,,-99.99,,2013-01-02 19:02:00,
2013-01-02 11:12:00,59.0,19.0,-100.00,WSW,237,5.0,10.0,21,-99.99,,,-99.99,,2013-01-02 19:12:00,
2013-01-02 11:22:00,60.0,19.0,-100.00,SSW,213,3.0,9.0,20,-99.99,,,-99.99,,2013-01-02 19:22:00,
2013-01-02 11:32:00,61.0,11.0,-100.00,East,99,6.0,16.0,14,-99.99,,,-99.99,,2013-01-02 19:32:00,
2013-01-02 11:42:00,61.0,11.0,-100.00,East,99,6.0,16.0,14,-99.99,,,-99.99,,2013-01-02 19:42:00,
2013-01-02 11:52:00,62.0,14.0,-100.00,NE,41,7.0,18.0,15,-99.99,,,-99.99,,2013-01-02 19:52:00,
2013-01-02 12:02:00,61.0,13.0,-100.00,North,6,6.0,11.0,15,-99.99,,,-99.99,,2013-01-02 20:02:00,
2013-01-02 12:12:00,61.0,10.0,-100.00,NE,46,8.0,17.0,13,-99.99,,,-99.99,,2013-01-02 20:12:00,
2013-01-02 12:22:00,62.0,11.0,-100.00,NE,50,8.0,16.0,13,-99.99,,,-99.99,,2013-01-02 20:22:00,
2013-01-02 12:32:00,62.0,11.0,-100.00,NE,48,5.0,14.0,13,-99.99,,,-99.99,,2013-01-02 20:32:00,
2013-01-02 12:42:00,63.0,11.0,-100.00,ENE,78,5.0,14.0,13,-99.99,,,-99.99,,2013-01-02 20:42:00,
2013-01-02 12:53:00,63.0,10.0,-100.00,ENE,57,5.0,11.0,12,-99.99,,,-99.99,,2013-01-02 20:53:00,
2013-01-02 13:02:00,63.0,10.0,-100.00,NE,56,6.0,14.0,12,-99.99,,,-99.99,,2013-01-02 21:02:00,
2013-01-02 13:12:00,63.0,10.0,-100.00,ENE,75,8.0,16.0,12,-99.99,,,-99.99,,2013-01-02 21:12:00,
2013-01-02 13:22:00,63.0,10.0,-100.00,ENE,66,6.0,12.0,12,-99.99,,,-99.99,,2013-01-02 21:22:00,
2013-01-02 13:32:00,63.0,8.0,-100.00,NE,56,5.0,12.0,11,-99.99,,,-99.99,,2013-01-02 21:32:00,
2013-01-02 13:42:00,63.0,10.0,-100.00,East,100,8.0,15.0,12,-99.99,,,-99.99,,2013-01-02 21:42:00,
2013-01-02 14:02:00,64.0,8.0,-100.00,ESE,109,5.0,9.0,11,-99.99,,,-99.99,,2013-01-02 22:02:00,
2013-01-02 14:12:00,64.0,14.0,-100.00,SSW,211,3.0,10.0,14,-99.99,,,-99.99,,2013-01-02 22:12:00,
2013-01-02 14:22:00,64.0,15.0,-100.00,SSW,212,5.0,11.0,15,-99.99,,,-99.99,,2013-01-02 22:22:00,
2013-01-02 14:32:00,63.0,19.0,-100.00,WSW,242,6.0,13.0,18,-99.99,,,-99.99,,2013-01-02 22:32:00,
2013-01-02 14:42:00,63.0,19.0,-100.00,WSW,246,6.0,11.0,18,-99.99,,,-99.99,,2013-01-02 22:42:00,
2013-01-02 14:52:00,63.0,18.0,-100.00,WSW,257,5.0,10.0,17,-99.99,,,-99.99,,2013-01-02 22:52:00,
2013-01-02 15:02:00,64.0,20.0,-100.00,SW,224,5.0,10.0,18,-99.99,,,-99.99,,2013-01-02 23:02:00,
2013-01-02 15:12:00,65.0,20.0,-100.00,SSW,208,4.0,12.0,18,-99.99,,,-99.99,,2013-01-02 23:12:00,
2013-01-02 15:22:00,64.0,18.0,-100.00,SW,221,5.0,10.0,17,-99.99,,,-99.99,,2013-01-02 23:22:00,
2013-01-02 15:32:00,65.0,20.0,-100.00,SW,214,4.0,9.0,18,-99.99,,,-99.99,,2013-01-02 23:32:00,
2013-01-02 15:42:00,63.0,19.0,-100.00,SW,220,7.0,11.0,18,-99.99,,,-99.99,,2013-01-02 23:42:00,
2013-01-02 15:52:00,63.0,19.0,-100.00,SSW,210,4.0,8.0,18,-99.99,,,-99.99,,2013-01-02 23:52:00,
2013-01-02 16:02:00,63.0,19.0,-100.00,SSW,196,4.0,7.0,18,-99.99,,,-99.99,,2013-01-03 00:02:00,
2013-01-02 16:12:00,62.0,19.0,-100.00,SSW,210,4.0,7.0,19,-99.99,,,-99.99,,2013-01-03 00:12:00,
2013-01-02 16:22:00,62.0,18.0,-100.00,SSW,199,3.0,6.0,18,-99.99,,,-99.99,,2013-01-03 00:22:00,
2013-01-02 16:36:00,62.0,18.0,-100.00,SSW,210,3.0,5.0,18,-99.99,,,-99.99,,2013-01-03 00:36:00,
2013-01-02 16:42:00,61.0,18.0,-100.00,SSE,162,2.0,4.0,19,-99.99,,,-99.99,,2013-01-03 00:42:00,
2013-01-02 16:52:00,61.0,17.0,-100.00,SSW,197,2.0,3.0,18,-99.99,,,-99.99,,2013-01-03 00:52:00,
2013-01-02 17:02:00,61.0,17.0,-100.00,SW,217,1.0,2.0,18,-99.99,,,-99.99,,2013-01-03 01:02:00,
2013-01-02 17:12:00,60.0,18.0,-100.00,SW,228,1.0,3.0,19,-99.99,,,-99.99,,2013-01-03 01:12:00,
2013-01-02 17:22:00,58.0,20.0,-100.00,ENE,59,3.0,7.0,23,-99.99,,,-99.99,,2013-01-03 01:22:00,
2013-01-02 17:32:00,55.0,21.0,-100.00,NE,55,6.0,8.0,26,-99.99,,,-99.99,,2013-01-03 01:32:00,
2013-01-02 17:42:00,54.0,22.0,-100.00,NE,51,6.0,9.0,28,-99.99,,,-99.99,,2013-01-03 01:42:00,
2013-01-02 17:52:00,53.0,21.0,-100.00,NE,53,6.0,8.0,28,-99.99,,,-99.99,,2013-01-03 01:52:00,
2013-01-02 18:02:00,53.0,21.0,-100.00,NE,48,6.0,8.0,28,-99.99,,,-99.99,,2013-01-03 02:02:00,
2013-01-02 18:12:00,54.0,20.0,-100.00,NE,43,5.0,8.0,26,-99.99,,,-99.99,,2013-01-03 02:12:00,
2013-01-02 18:22:00,55.0,19.0,-100.00,NNW,332,3.0,5.0,24,-99.99,,,-99.99,,2013-01-03 02:22:00,
2013-01-02 18:32:00,54.0,19.0,-100.00,NW,322,4.0,6.0,25,-99.99,,,-99.99,,2013-01-03 02:32:00,
2013-01-02 18:42:00,54.0,19.0,-100.00,NW,322,4.0,6.0,25,-99.99,,,-99.99,,2013-01-03 02:42:00,
2013-01-02 18:52:00,54.0,19.0,-100.00,NW,322,4.0,6.0,25,-99.99,,,-99.99,,2013-01-03 02:52:00,
2013-01-02 19:02:00,54.0,18.0,-100.00,NE,49,2.0,4.0,24,-99.99,,,-99.99,,2013-01-03 03:02:00,
2013-01-02 19:12:00,53.0,18.0,-100.00,NE,48,4.0,7.0,25,-99.99,,,-99.99,,2013-01-03 03:12:00,
2013-01-02 19:22:00,53.0,19.0,-100.00,NE,48,5.0,7.0,26,-99.99,,,-99.99,,2013-01-03 03:22:00,
2013-01-02 19:46:00,52.0,18.0,-100.00,NE,45,7.0,9.0,26,-99.99,,,-99.99,,2013-01-03 03:46:00,
2013-01-02 19:52:00,50.0,19.0,-100.00,NE,45,7.0,9.0,29,-99.99,,,-99.99,,2013-01-03 03:52:00,
2013-01-02 20:02:00,50.0,19.0,-100.00,NE,45,7.0,9.0,29,-99.99,,,-99.99,,2013-01-03 04:02:00,
2013-01-02 20:12:00,52.0,20.0,-100.00,NE,47,6.0,8.0,28,-99.99,,,-99.99,,2013-01-03 04:12:00,
2013-01-02 20:22:00,52.0,20.0,-100.00,NE,48,6.0,8.0,28,-99.99,,,-99.99,,2013-01-03 04:22:00,
2013-01-02 20:32:00,51.0,20.0,-100.00,NE,50,6.0,9.0,29,-99.99,,,-99.99,,2013-01-03 04:32:00,
2013-01-02 20:42:00,51.0,20.0,-100.00,NE,50,6.0,9.0,29,-99.99,,,-99.99,,2013-01-03 04:42:00,
2013-01-02 20:52:00,51.0,21.0,-100.00,NE,45,7.0,9.0,30,-99.99,,,-99.99,,2013-01-03 04:52:00,
2013-01-02 21:03:00,54.0,21.0,-100.00,NNE,23,2.0,4.0,27,-99.99,,,-99.99,,2013-01-03 05:03:00,
2013-01-02 21:12:00,54.0,21.0,-100.00,NNE,20,2.0,5.0,27,-99.99,,,-99.99,,2013-01-03 05:12:00,
2013-01-02 21:22:00,54.0,21.0,-100.00,NW,305,2.0,4.0,27,-99.99,,,-99.99,,2013-01-03 05:22:00,
2013-01-02 21:33:00,54.0,22.0,-100.00,NW,321,0.0,1.0,28,-99.99,,,-99.99,,2013-01-03 05:33:00,
2013-01-02 21:42:00,54.0,22.0,-100.00,NW,321,0.0,1.0,28,-99.99,,,-99.99,,2013-01-03 05:42:00,
2013-01-02 21:52:00,53.0,21.0,-100.00,NNW,343,0.0,2.0,28,-99.99,,,-99.99,,2013-01-03 05:52:00,
2013-01-02 22:02:00,53.0,20.0,-100.00,NE,45,3.0,6.0,27,-99.99,,,-99.99,,2013-01-03 06:02:00,
2013-01-02 22:12:00,53.0,20.0,-100.00,NE,48,5.0,8.0,27,-99.99,,,-99.99,,2013-01-03 06:12:00,
2013-01-02 22:22:00,51.0,21.0,-100.00,NE,46,6.0,8.0,30,-99.99,,,-99.99,,2013-01-03 06:22:00,
2013-01-02 22:32:00,52.0,19.0,-100.00,NE,40,5.0,8.0,27,-99.99,,,-99.99,,2013-01-03 06:32:00,
2013-01-02 22:42:00,52.0,19.0,-100.00,NE,40,5.0,8.0,27,-99.99,,,-99.99,,2013-01-03 06:42:00,
2013-01-02 22:52:00,52.0,18.0,-100.00,NE,46,5.0,7.0,26,-99.99,,,-99.99,,2013-01-03 06:52:00,
2013-01-02 23:02:00,54.0,17.0,-100.00,NE,37,4.0,7.0,23,-99.99,,,-99.99,,2013-01-03 07:02:00,
2013-01-02 23:12:00,53.0,17.0,-100.00,NE,46,5.0,8.0,24,-99.99,,,-99.99,,2013-01-03 07:12:00,
2013-01-02 23:22:00,52.0,16.0,-100.00,NE,46,7.0,9.0,24,-99.99,,,-99.99,,2013-01-03 07:22:00,
2013-01-02 23:32:00,53.0,14.0,-100.00,NE,37,4.0,8.0,21,-99.99,,,-99.99,,2013-01-03 07:32:00,
2013-01-02 23:42:00,55.0,15.0,-100.00,NNE,26,2.0,4.0,20,-99.99,,,-99.99,,2013-01-03 07:42:00,
2013-01-02 23:52:00,53.0,15.0,-100.00,NNE,16,3.0,6.0,22,-99.99,,,-99.99,,2013-01-03 07:52:00,